createdAt,value
2022-12-14T00:01:28.772Z,-7.00
2022-12-14T00:03:56.584Z,-6.97
2022-12-14T00:06:28.892Z,-6.91
2022-12-14T00:09:04.883Z,-6.87
2022-12-14T00:11:33.576Z,-6.79
2022-12-14T00:14:02.243Z,-6.74
2022-12-14T00:16:31.435Z,-6.64
2022-12-14T00:18:59.790Z,-6.56
2022-12-14T00:21:27.150Z,-6.47
2022-12-14T00:23:55.386Z,-6.36
2022-12-14T00:26:31.214Z,-6.24
2022-12-14T00:28:58.992Z,-6.12
2022-12-14T00:31:26.033Z,-6.01
2022-12-14T00:33:53.069Z,-5.92
2022-12-14T00:36:19.747Z,-5.86
2022-12-14T00:38:46.329Z,-5.80
2022-12-14T00:41:12.914Z,-5.70
2022-12-14T00:43:39.753Z,-5.64
2022-12-14T00:46:06.912Z,-5.57
2022-12-14T00:48:34.310Z,-5.49
2022-12-14T00:51:00.958Z,-5.41
2022-12-14T00:53:27.567Z,-5.35
2022-12-14T00:55:54.173Z,-5.28
2022-12-14T00:58:22.845Z,-5.20
2022-12-14T01:01:02.567Z,-5.12
2022-12-14T01:03:30.054Z,-5.03
2022-12-14T01:05:57.054Z,-4.96
2022-12-14T01:08:23.953Z,-4.89
2022-12-14T01:10:50.905Z,-4.83
2022-12-14T01:13:17.991Z,-4.78
2022-12-14T01:15:44.577Z,-4.76
2022-12-14T01:18:11.154Z,-4.70
2022-12-14T01:20:37.713Z,-4.68
2022-12-14T01:23:04.241Z,-4.63
2022-12-14T01:25:30.769Z,-4.61
2022-12-14T01:27:57.310Z,-4.55
2022-12-14T01:30:23.877Z,-4.53
2022-12-14T01:32:50.412Z,-4.49
2022-12-14T01:35:17.356Z,-4.46
2022-12-14T01:37:43.931Z,-4.47
2022-12-14T01:40:10.719Z,-4.45
2022-12-14T01:42:37.483Z,-4.45
2022-12-14T01:45:05.659Z,-4.43
2022-12-14T01:47:44.419Z,-4.40
2022-12-14T01:50:34.101Z,-4.40
2022-12-14T01:53:06.501Z,-4.41
2022-12-14T01:55:42.827Z,-4.40
2022-12-14T01:58:17.334Z,-4.41
2022-12-14T02:00:44.468Z,-4.41
2022-12-14T02:03:19.504Z,-4.42
2022-12-14T02:05:52.173Z,-4.40
2022-12-14T02:08:21.470Z,-4.42
2022-12-14T02:10:50.132Z,-4.43
2022-12-14T02:13:22.813Z,-4.46
2022-12-14T02:15:49.494Z,-4.46
2022-12-14T02:18:26.041Z,-4.48
2022-12-14T02:21:11.208Z,-4.50
2022-12-14T02:23:56.009Z,-4.49
2022-12-14T02:26:35.139Z,-4.48
2022-12-14T02:29:24.384Z,-4.47
2022-12-14T02:32:04.642Z,-4.43
2022-12-14T02:34:46.029Z,-4.42
2022-12-14T02:37:15.547Z,-4.40
2022-12-14T02:39:58.317Z,-4.40
2022-12-14T02:42:54.223Z,-4.39
2022-12-14T02:45:32.231Z,-4.36
2022-12-14T02:48:29.089Z,-4.35
2022-12-14T02:51:30.831Z,-4.31
2022-12-14T02:54:27.458Z,-4.27
2022-12-14T02:57:09.205Z,-4.24
2022-12-14T02:59:36.763Z,-4.21
2022-12-14T03:02:04.936Z,-4.18
2022-12-14T03:04:31.758Z,-4.13
2022-12-14T03:07:22.008Z,-4.11
2022-12-14T03:09:48.486Z,-4.08
2022-12-14T03:12:17.999Z,-4.06
2022-12-14T03:14:49.249Z,-4.03
2022-12-14T03:17:30.447Z,-4.02
2022-12-14T03:20:05.189Z,-3.98
2022-12-14T03:22:39.754Z,-3.95
2022-12-14T03:25:14.410Z,-3.92
2022-12-14T03:27:43.632Z,-3.92
2022-12-14T03:30:13.763Z,-3.91
2022-12-14T03:32:47.133Z,-3.89
2022-12-14T03:35:32.887Z,-3.85
2022-12-14T03:38:07.605Z,-3.81
2022-12-14T03:40:36.881Z,-3.79
2022-12-14T03:43:14.856Z,-3.78
2022-12-14T03:45:53.446Z,-3.74
2022-12-14T03:48:36.858Z,-3.70
2022-12-14T03:51:20.409Z,-3.67
2022-12-14T03:54:04.750Z,-3.62
2022-12-14T03:56:37.154Z,-3.60
2022-12-14T03:59:06.531Z,-3.59
2022-12-14T04:01:49.243Z,-3.58
2022-12-14T04:04:24.481Z,-3.57
2022-12-14T04:07:02.528Z,-3.54
2022-12-14T04:09:47.654Z,-3.52
2022-12-14T04:12:40.314Z,-3.54
2022-12-14T04:15:41.433Z,-3.52
2022-12-14T04:18:32.416Z,-3.50
2022-12-14T04:21:17.565Z,-3.46
2022-12-14T04:24:07.472Z,-3.44
2022-12-14T04:26:39.581Z,-3.42
2022-12-14T04:29:29.888Z,-3.42
2022-12-14T04:32:21.379Z,-3.40
2022-12-14T04:34:54.301Z,-3.39
2022-12-14T04:37:24.745Z,-3.35
2022-12-14T04:39:59.333Z,-3.32
2022-12-14T04:42:34.000Z,-3.28
2022-12-14T04:45:08.117Z,-3.27
2022-12-14T04:47:39.190Z,-3.27
2022-12-14T04:50:14.108Z,-3.27
2022-12-14T04:52:53.718Z,-3.25
2022-12-14T04:55:29.050Z,-3.22
2022-12-14T04:58:02.133Z,-3.19
2022-12-14T05:00:33.570Z,-3.16
2022-12-14T05:03:09.494Z,-3.14
2022-12-14T05:05:45.018Z,-3.12
2022-12-14T05:08:32.350Z,-3.10
2022-12-14T05:11:51.940Z,-3.07
2022-12-14T05:14:14.685Z,-3.06
2022-12-14T05:16:41.503Z,-3.04
2022-12-14T05:19:11.209Z,-3.03
2022-12-14T05:21:50.145Z,-3.00
2022-12-14T05:24:17.273Z,-3.00
2022-12-14T05:26:45.456Z,-2.96
2022-12-14T05:29:12.001Z,-2.95
2022-12-14T05:31:38.633Z,-2.90
2022-12-14T05:34:05.215Z,-2.90
2022-12-14T05:36:31.758Z,-2.88
2022-12-14T05:38:58.242Z,-2.88
2022-12-14T05:41:24.836Z,-2.87
2022-12-14T05:43:51.426Z,-2.87
2022-12-14T05:46:18.486Z,-2.87
2022-12-14T05:48:49.200Z,-2.86
2022-12-14T05:51:16.424Z,-2.85
2022-12-14T05:53:42.964Z,-2.84
2022-12-14T05:56:10.920Z,-2.84
2022-12-14T05:58:38.362Z,-2.85
2022-12-14T06:01:11.601Z,-2.83
2022-12-14T06:03:42.467Z,-2.82
2022-12-14T06:06:11.759Z,-2.81
2022-12-14T06:08:42.058Z,-2.82
2022-12-14T06:11:18.077Z,-2.79
2022-12-14T06:13:45.219Z,-2.78
2022-12-14T06:16:23.332Z,-2.78
2022-12-14T06:18:58.304Z,-2.75
2022-12-14T06:21:29.375Z,-2.73
2022-12-14T06:23:57.156Z,-2.74
2022-12-14T06:26:23.872Z,-2.75
2022-12-14T06:28:50.497Z,-2.74
2022-12-14T06:31:20.236Z,-2.72
2022-12-14T06:33:47.081Z,-2.69
2022-12-14T06:36:18.986Z,-2.65
2022-12-14T06:38:46.184Z,-2.64
2022-12-14T06:41:12.730Z,-2.60
2022-12-14T06:43:39.250Z,-2.60
2022-12-14T06:46:15.173Z,-2.52
2022-12-14T06:48:42.655Z,-2.52
2022-12-14T06:51:09.494Z,-2.53
2022-12-14T06:53:36.298Z,-2.53
2022-12-14T06:56:11.106Z,-2.53
2022-12-14T06:58:37.889Z,-2.52
2022-12-14T07:01:06.028Z,-2.52
2022-12-14T07:03:32.890Z,-2.51
2022-12-14T07:06:00.852Z,-2.49
2022-12-14T07:08:29.857Z,-2.49
2022-12-14T07:11:02.084Z,-2.46
2022-12-14T07:13:29.748Z,-2.44
2022-12-14T07:15:58.517Z,-2.42
2022-12-14T07:18:26.009Z,-2.41
2022-12-14T07:21:12.963Z,-2.41
2022-12-14T07:23:41.314Z,-2.41
2022-12-14T07:26:11.770Z,-2.42
2022-12-14T07:28:38.934Z,-2.40
2022-12-14T07:31:07.979Z,-2.39
2022-12-14T07:33:34.893Z,-2.37
2022-12-14T07:36:06.802Z,-2.35
2022-12-14T07:38:34.849Z,-2.33
2022-12-14T07:41:03.577Z,-2.28
2022-12-14T07:43:30.586Z,-2.26
2022-12-14T07:46:02.295Z,-2.25
2022-12-14T07:48:29.683Z,-2.23
2022-12-14T07:51:04.825Z,-2.20
2022-12-14T07:53:31.786Z,-2.17
2022-12-14T07:56:04.726Z,-2.17
2022-12-14T07:58:33.255Z,-2.14
2022-12-14T08:01:14.497Z,-2.13
2022-12-14T08:03:53.131Z,-2.13
2022-12-14T08:06:21.357Z,-2.12
2022-12-14T08:08:48.270Z,-2.11
2022-12-14T08:11:16.780Z,-2.10
2022-12-14T08:13:43.446Z,-2.09
2022-12-14T08:16:15.304Z,-2.07
2022-12-14T08:18:43.015Z,-2.07
2022-12-14T08:21:11.747Z,-2.05
2022-12-14T08:23:38.824Z,-2.05
2022-12-14T08:26:06.843Z,-2.04
2022-12-14T08:28:35.021Z,-2.03
2022-12-14T08:31:07.062Z,-2.00
2022-12-14T08:33:35.211Z,-1.99
2022-12-14T08:36:12.570Z,-1.96
2022-12-14T08:38:40.533Z,-1.95
2022-12-14T08:41:09.938Z,-1.93
2022-12-14T08:43:38.697Z,-1.91
2022-12-14T08:46:05.633Z,-1.90
2022-12-14T08:48:32.489Z,-1.88
2022-12-14T08:51:03.491Z,-1.86
2022-12-14T08:53:30.277Z,-1.83
2022-12-14T08:55:57.376Z,-1.81
2022-12-14T08:58:23.931Z,-1.79
2022-12-14T09:00:50.475Z,-1.77
2022-12-14T09:03:17.073Z,-1.74
2022-12-14T09:05:43.614Z,-1.72
2022-12-14T09:08:10.160Z,-1.69
2022-12-14T09:10:36.700Z,-1.69
2022-12-14T09:13:03.297Z,-1.66
2022-12-14T09:15:30.561Z,-1.62
2022-12-14T09:17:57.063Z,-1.59
2022-12-14T09:20:23.660Z,-1.54
2022-12-14T09:22:51.541Z,-1.52
2022-12-14T09:25:18.084Z,-1.47
2022-12-14T09:27:44.642Z,-1.43
2022-12-14T09:30:11.327Z,-1.40
2022-12-14T09:32:38.129Z,-1.36
2022-12-14T09:35:04.912Z,-1.34
2022-12-14T09:37:31.382Z,-1.30
2022-12-14T09:39:57.929Z,-1.30
2022-12-14T09:42:50.561Z,-1.27
2022-12-14T09:45:23.531Z,-1.25
2022-12-14T09:48:04.311Z,-1.20
2022-12-14T09:50:31.368Z,-1.16
2022-12-14T09:53:02.238Z,-1.13
2022-12-14T09:55:39.461Z,-1.08
2022-12-14T09:58:23.024Z,-1.04
2022-12-14T10:00:59.071Z,-1.01
2022-12-14T10:03:38.517Z,-1.00
2022-12-14T10:06:26.661Z,-0.96
2022-12-14T10:09:10.034Z,-0.96
2022-12-14T10:11:39.559Z,-0.92
2022-12-14T10:14:26.366Z,-0.92
2022-12-14T10:17:23.642Z,-0.88
2022-12-14T10:19:55.877Z,-0.84
2022-12-14T10:22:37.656Z,-0.79
2022-12-14T10:25:11.510Z,-0.78
2022-12-14T10:28:09.235Z,-0.77
2022-12-14T10:30:27.752Z,-0.75
2022-12-14T10:33:03.394Z,-0.73
2022-12-14T10:35:38.408Z,-0.77
2022-12-14T10:38:16.638Z,-0.74
2022-12-14T10:40:49.616Z,-0.72
2022-12-14T10:43:31.305Z,-0.72
2022-12-14T10:46:25.560Z,-0.68
2022-12-14T10:49:04.752Z,-0.65
2022-12-14T10:51:37.267Z,-0.65
2022-12-14T10:54:12.676Z,-0.63
2022-12-14T10:56:42.287Z,-0.57
2022-12-14T10:59:18.104Z,-0.54
2022-12-14T11:01:55.345Z,-0.51
2022-12-14T11:04:44.881Z,-0.51
2022-12-14T11:07:15.037Z,-0.51
2022-12-14T11:09:42.729Z,-0.49
2022-12-14T11:12:26.908Z,-0.49
2022-12-14T11:15:00.723Z,-0.49
2022-12-14T11:17:47.545Z,-0.49
2022-12-14T11:20:16.893Z,-0.47
2022-12-14T11:22:50.001Z,-0.47
2022-12-14T11:25:37.882Z,-0.44
2022-12-14T11:28:18.085Z,-0.44
2022-12-14T11:31:03.122Z,-0.44
2022-12-14T11:33:49.961Z,-0.43
2022-12-14T11:36:30.463Z,-0.42
2022-12-14T11:39:04.559Z,-0.43
2022-12-14T11:41:39.213Z,-0.42
2022-12-14T11:44:26.286Z,-0.42
2022-12-14T11:46:58.577Z,-0.40
2022-12-14T11:49:54.612Z,-0.39
2022-12-14T11:52:40.432Z,-0.37
2022-12-14T11:55:26.869Z,-0.38
2022-12-14T11:57:57.390Z,-0.38
2022-12-14T12:00:27.553Z,-0.37
2022-12-14T12:03:08.614Z,-0.38
2022-12-14T12:05:44.453Z,-0.39
2022-12-14T12:08:44.540Z,-0.41
2022-12-14T12:11:23.789Z,-0.43
2022-12-14T12:13:52.380Z,-0.43
2022-12-14T12:16:22.674Z,-0.45
2022-12-14T12:19:12.597Z,-0.44
2022-12-14T12:21:42.932Z,-0.43
2022-12-14T12:24:22.119Z,-0.42
2022-12-14T12:27:11.369Z,-0.37
2022-12-14T12:29:43.605Z,-0.34
2022-12-14T12:32:15.827Z,-0.32
2022-12-14T12:35:15.068Z,-0.31
2022-12-14T12:37:57.102Z,-0.28
2022-12-14T12:40:29.255Z,-0.23
2022-12-14T12:43:36.962Z,-0.21
2022-12-14T12:46:17.522Z,-0.20
2022-12-14T12:48:50.785Z,-0.17
2022-12-14T12:51:24.640Z,-0.15
2022-12-14T12:53:59.481Z,-0.11
2022-12-14T12:56:49.489Z,-0.09
2022-12-14T12:59:24.737Z,-0.09
2022-12-14T13:01:59.537Z,-0.08
2022-12-14T13:04:33.419Z,-0.07
2022-12-14T13:07:02.735Z,-0.07
2022-12-14T13:09:35.400Z,-0.05
2022-12-14T13:12:03.297Z,-0.05
2022-12-14T13:14:42.840Z,-0.02
2022-12-14T13:17:50.497Z,0.02
2022-12-14T13:20:30.506Z,0.03
2022-12-14T13:23:05.698Z,0.04
2022-12-14T13:25:57.217Z,0.04
2022-12-14T13:28:42.075Z,0.04
2022-12-14T13:31:23.601Z,0.03
2022-12-14T13:34:04.564Z,0.03
2022-12-14T13:36:31.025Z,0.03
2022-12-14T13:39:25.457Z,0.02
2022-12-14T13:41:58.105Z,0.02
2022-12-14T13:44:37.401Z,0.02
2022-12-14T13:47:21.130Z,0.04
2022-12-14T13:50:35.259Z,0.03
2022-12-14T13:52:48.134Z,0.03
2022-12-14T13:55:29.907Z,0.02
2022-12-14T13:58:22.077Z,0.03
2022-12-14T14:00:51.264Z,0.04
2022-12-14T14:03:36.211Z,0.04
2022-12-14T14:06:11.517Z,0.03
2022-12-14T14:08:43.073Z,0.02
2022-12-14T14:11:37.807Z,0.01
2022-12-14T14:14:40.478Z,-0.02
2022-12-14T14:17:30.558Z,-0.03
2022-12-14T14:19:58.108Z,-0.05
2022-12-14T14:22:29.654Z,-0.05
2022-12-14T14:25:34.600Z,-0.08
2022-12-14T14:28:01.216Z,-0.12
2022-12-14T14:30:41.160Z,-0.16
2022-12-14T14:33:48.875Z,-0.22
2022-12-14T14:36:36.143Z,-0.26
2022-12-14T14:39:31.514Z,-0.31
2022-12-14T14:41:55.631Z,-0.34
2022-12-14T14:44:46.796Z,-0.36
2022-12-14T14:47:36.888Z,-0.38
2022-12-14T14:50:23.596Z,-0.41
2022-12-14T14:53:33.035Z,-0.44
2022-12-14T14:56:04.045Z,-0.46
2022-12-14T14:58:33.064Z,-0.48
2022-12-14T15:01:02.744Z,-0.50
2022-12-14T15:03:47.803Z,-0.52
2022-12-14T15:06:18.519Z,-0.53
2022-12-14T15:08:50.429Z,-0.56
2022-12-14T15:11:20.628Z,-0.57
2022-12-14T15:14:43.335Z,-0.58
2022-12-14T15:17:14.730Z,-0.60
2022-12-14T15:19:48.116Z,-0.61
2022-12-14T15:22:19.536Z,-0.64
2022-12-14T15:24:49.190Z,-0.65
2022-12-14T15:27:32.504Z,-0.67
2022-12-14T15:30:26.931Z,-0.69
2022-12-14T15:32:58.084Z,-0.71
2022-12-14T15:35:28.534Z,-0.71
2022-12-14T15:38:00.213Z,-0.72
2022-12-14T15:40:30.276Z,-0.76
2022-12-14T15:43:18.601Z,-0.77
2022-12-14T15:45:48.668Z,-0.78
2022-12-14T15:48:28.053Z,-0.79
2022-12-14T15:51:25.825Z,-0.79
2022-12-14T15:53:55.125Z,-0.79
2022-12-14T15:56:29.150Z,-0.81
2022-12-14T15:59:01.263Z,-0.82
2022-12-14T16:01:34.791Z,-0.84
2022-12-14T16:04:10.131Z,-0.83
2022-12-14T16:06:41.977Z,-0.86
2022-12-14T16:09:22.906Z,-0.85
2022-12-14T16:11:54.709Z,-0.86
2022-12-14T16:14:44.135Z,-0.88
2022-12-14T16:17:18.473Z,-0.88
2022-12-14T16:19:59.478Z,-0.89
2022-12-14T16:22:39.219Z,-0.90
2022-12-14T16:25:05.722Z,-0.91
2022-12-14T16:27:43.931Z,-0.93
2022-12-14T16:30:31.653Z,-0.96
2022-12-14T16:33:17.433Z,-0.95
2022-12-14T16:35:46.087Z,-0.98
2022-12-14T16:38:14.969Z,-1.01
2022-12-14T16:40:55.116Z,-1.02
2022-12-14T16:43:25.320Z,-1.02
2022-12-14T16:45:54.688Z,-1.02
2022-12-14T16:48:23.128Z,-1.03
2022-12-14T16:51:03.644Z,-1.03
2022-12-14T16:53:34.914Z,-1.02
2022-12-14T16:56:07.332Z,-1.02
2022-12-14T16:58:35.939Z,-1.02
2022-12-14T17:01:06.266Z,-1.05
2022-12-14T17:03:34.104Z,-1.03
2022-12-14T17:06:04.168Z,-1.04
2022-12-14T17:08:32.964Z,-1.03
2022-12-14T17:10:59.949Z,-1.07
2022-12-14T17:13:26.668Z,-1.09
2022-12-14T17:15:59.087Z,-1.10
2022-12-14T17:18:32.586Z,-1.10
2022-12-14T17:21:00.141Z,-1.08
2022-12-14T17:23:27.486Z,-1.07
2022-12-14T17:25:54.265Z,-1.07
2022-12-14T17:28:28.041Z,-1.08
2022-12-14T17:30:57.384Z,-1.08
2022-12-14T17:33:28.693Z,-1.07
2022-12-14T17:35:55.899Z,-1.05
2022-12-14T17:38:23.792Z,-1.05
2022-12-14T17:40:51.386Z,-1.05
2022-12-14T17:43:20.970Z,-1.05
2022-12-14T17:45:47.603Z,-1.05
2022-12-14T17:48:16.434Z,-1.02
2022-12-14T17:50:45.114Z,-1.02
2022-12-14T17:53:14.836Z,-1.01
2022-12-14T17:55:41.544Z,-1.02
2022-12-14T17:58:10.705Z,-1.00
2022-12-14T18:00:57.000Z,-1.01
2022-12-14T18:03:23.622Z,-1.00
2022-12-14T18:05:50.689Z,-0.99
2022-12-14T18:08:18.531Z,-0.99
2022-12-14T18:10:46.491Z,-1.00
2022-12-14T18:13:13.565Z,-0.99
2022-12-14T18:15:49.934Z,-1.01
2022-12-14T18:18:21.640Z,-0.98
2022-12-14T18:20:51.652Z,-0.98
2022-12-14T18:23:19.356Z,-0.97
2022-12-14T18:25:52.758Z,-0.91
2022-12-14T18:28:19.963Z,-0.91
2022-12-14T18:30:51.145Z,-0.90
2022-12-14T18:33:21.493Z,-0.95
2022-12-14T18:35:49.655Z,-0.93
2022-12-14T18:38:16.365Z,-0.92
2022-12-14T18:40:50.161Z,-0.92
2022-12-14T18:43:28.250Z,-0.90
2022-12-14T18:45:56.329Z,-0.90
2022-12-14T18:48:24.069Z,-0.90
2022-12-14T18:50:52.877Z,-0.88
2022-12-14T18:53:23.157Z,-0.86
2022-12-14T18:55:49.867Z,-0.85
2022-12-14T18:58:28.353Z,-0.82
2022-12-14T19:00:57.850Z,-0.83
2022-12-14T19:03:25.687Z,-0.82
2022-12-14T19:06:20.392Z,-0.84
2022-12-14T19:08:49.533Z,-0.85
2022-12-14T19:11:30.141Z,-0.84
2022-12-14T19:13:56.658Z,-0.86
2022-12-14T19:16:23.378Z,-0.86
2022-12-14T19:18:51.261Z,-0.87
2022-12-14T19:21:19.086Z,-0.86
2022-12-14T19:23:46.005Z,-0.86
2022-12-14T19:26:12.609Z,-0.83
2022-12-14T19:28:39.225Z,-0.82
2022-12-14T19:31:05.781Z,-0.82
2022-12-14T19:33:33.086Z,-0.81
2022-12-14T19:36:00.314Z,-0.82
2022-12-14T19:38:28.355Z,-0.82
2022-12-14T19:41:01.726Z,-0.85
2022-12-14T19:43:29.512Z,-0.85
2022-12-14T19:45:57.057Z,-0.87
2022-12-14T19:48:23.710Z,-0.85
2022-12-14T19:50:50.326Z,-0.85
2022-12-14T19:53:22.995Z,-0.85
2022-12-14T19:55:52.382Z,-0.83
2022-12-14T19:58:22.143Z,-0.82
2022-12-14T20:00:50.126Z,-0.81
2022-12-14T20:03:17.280Z,-0.81
2022-12-14T20:05:55.496Z,-0.79
2022-12-14T20:08:23.063Z,-0.78
2022-12-14T20:10:49.658Z,-0.77
2022-12-14T20:13:16.996Z,-0.78
2022-12-14T20:15:58.097Z,-0.75
2022-12-14T20:18:25.511Z,-0.75
2022-12-14T20:20:52.341Z,-0.73
2022-12-14T20:23:21.549Z,-0.71
2022-12-14T20:25:48.722Z,-0.72
2022-12-14T20:28:15.249Z,-0.72
2022-12-14T20:30:44.224Z,-0.72
2022-12-14T20:33:10.822Z,-0.71
2022-12-14T20:35:37.504Z,-0.73
2022-12-14T20:38:04.117Z,-0.70
2022-12-14T20:40:38.021Z,-0.69
2022-12-14T20:43:05.233Z,-0.68
2022-12-14T20:45:31.745Z,-0.66
2022-12-14T20:47:58.229Z,-0.64
2022-12-14T20:50:24.833Z,-0.63
2022-12-14T20:52:51.318Z,-0.64
2022-12-14T20:55:17.837Z,-0.62
2022-12-14T20:57:44.324Z,-0.62
2022-12-14T21:00:12.278Z,-0.64
2022-12-14T21:02:39.264Z,-0.64
2022-12-14T21:05:06.593Z,-0.63
2022-12-14T21:07:33.696Z,-0.64
2022-12-14T21:10:00.273Z,-0.66
2022-12-14T21:12:26.967Z,-0.63
2022-12-14T21:14:55.264Z,-0.62
2022-12-14T21:17:26.854Z,-0.62
2022-12-14T21:19:54.101Z,-0.61
2022-12-14T21:22:23.618Z,-0.62
2022-12-14T21:25:07.130Z,-0.61
2022-12-14T21:27:38.349Z,-0.59
2022-12-14T21:30:10.830Z,-0.58
2022-12-14T21:32:38.338Z,-0.57
2022-12-14T21:35:05.811Z,-0.57
2022-12-14T21:37:32.353Z,-0.55
2022-12-14T21:39:58.914Z,-0.56
2022-12-14T21:42:25.841Z,-0.57
2022-12-14T21:44:53.502Z,-0.58
2022-12-14T21:47:25.869Z,-0.59
2022-12-14T21:49:52.837Z,-0.60
2022-12-14T21:52:22.848Z,-0.62
2022-12-14T21:54:49.526Z,-0.63
2022-12-14T21:57:37.502Z,-0.64
2022-12-14T22:00:06.152Z,-0.66
2022-12-14T22:02:32.812Z,-0.65
2022-12-14T22:04:59.650Z,-0.64
2022-12-14T22:07:31.233Z,-0.64
2022-12-14T22:09:58.015Z,-0.63
2022-12-14T22:12:24.598Z,-0.64
2022-12-14T22:14:51.132Z,-0.65
2022-12-14T22:17:17.794Z,-0.64
2022-12-14T22:19:44.313Z,-0.66
2022-12-14T22:22:17.160Z,-0.66
2022-12-14T22:24:44.895Z,-0.66
2022-12-14T22:27:12.779Z,-0.65
2022-12-14T22:29:39.892Z,-0.67
2022-12-14T22:32:07.691Z,-0.70
2022-12-14T22:34:34.392Z,-0.70
2022-12-14T22:37:01.242Z,-0.70
2022-12-14T22:39:27.753Z,-0.67
2022-12-14T22:41:54.256Z,-0.66
2022-12-14T22:44:20.882Z,-0.68
2022-12-14T22:46:47.513Z,-0.71
2022-12-14T22:49:19.074Z,-0.71
2022-12-14T22:51:46.079Z,-0.72
2022-12-14T22:54:21.846Z,-0.71
2022-12-14T22:57:13.899Z,-0.69
2022-12-14T22:59:57.396Z,-0.67
2022-12-14T23:02:24.335Z,-0.65
2022-12-14T23:04:51.160Z,-0.65
2022-12-14T23:07:18.124Z,-0.64
2022-12-14T23:10:03.703Z,-0.62
2022-12-14T23:12:48.973Z,-0.60
2022-12-14T23:15:34.259Z,-0.62
2022-12-14T23:18:24.186Z,-0.60
2022-12-14T23:21:09.553Z,-0.59
2022-12-14T23:23:58.952Z,-0.61
2022-12-14T23:26:44.239Z,-0.60
2022-12-14T23:29:29.570Z,-0.59
2022-12-14T23:32:14.961Z,-0.59
2022-12-14T23:35:00.019Z,-0.59
2022-12-14T23:37:44.996Z,-0.62
2022-12-14T23:40:30.972Z,-0.60
2022-12-14T23:43:15.897Z,-0.63
2022-12-14T23:46:01.785Z,-0.63
2022-12-14T23:48:46.790Z,-0.62
2022-12-14T23:51:31.578Z,-0.60
2022-12-14T23:54:16.356Z,-0.59
2022-12-14T23:57:01.230Z,-0.58
2022-12-14T23:59:49.677Z,-0.61
